sensor_id;sensor_type;location;lat;lon;timestamp;P1;durP1;ratioP1;P2;durP2;ratioP2
46308;SDS011;32037;50.820;6.494;2022-12-18T00:00:15;10.80;;;7.30;;
46308;SDS011;32037;50.820;6.494;2022-12-18T00:02:46;8.27;;;6.05;;
46308;SDS011;32037;50.820;6.494;2022-12-18T00:05:14;8.00;;;6.40;;
46308;SDS011;32037;50.820;6.494;2022-12-18T00:07:46;12.07;;;6.20;;
46308;SDS011;32037;50.820;6.494;2022-12-18T00:10:15;7.30;;;5.60;;
46308;SDS011;32037;50.820;6.494;2022-12-18T00:12:43;8.88;;;6.07;;
46308;SDS011;32037;50.820;6.494;2022-12-18T00:15:12;6.60;;;5.30;;
46308;SDS011;32037;50.820;6.494;2022-12-18T00:17:40;7.60;;;5.25;;
46308;SDS011;32037;50.820;6.494;2022-12-18T00:20:11;8.13;;;6.05;;
46308;SDS011;32037;50.820;6.494;2022-12-18T00:22:39;8.75;;;5.78;;
46308;SDS011;32037;50.820;6.494;2022-12-18T00:25:08;8.13;;;5.43;;
46308;SDS011;32037;50.820;6.494;2022-12-18T00:27:36;8.65;;;5.88;;
46308;SDS011;32037;50.820;6.494;2022-12-18T00:30:05;7.28;;;5.65;;
46308;SDS011;32037;50.820;6.494;2022-12-18T00:32:35;10.65;;;6.00;;
46308;SDS011;32037;50.820;6.494;2022-12-18T00:35:04;10.15;;;6.15;;
46308;SDS011;32037;50.820;6.494;2022-12-18T00:37:34;7.50;;;5.55;;
46308;SDS011;32037;50.820;6.494;2022-12-18T00:40:04;9.75;;;7.05;;
46308;SDS011;32037;50.820;6.494;2022-12-18T00:42:37;8.35;;;5.13;;
46308;SDS011;32037;50.820;6.494;2022-12-18T00:45:24;8.30;;;5.45;;
46308;SDS011;32037;50.820;6.494;2022-12-18T00:47:55;9.30;;;6.32;;
46308;SDS011;32037;50.820;6.494;2022-12-18T00:50:24;7.90;;;5.68;;
46308;SDS011;32037;50.820;6.494;2022-12-18T00:52:54;10.00;;;6.43;;
46308;SDS011;32037;50.820;6.494;2022-12-18T00:55:22;8.57;;;5.65;;
46308;SDS011;32037;50.820;6.494;2022-12-18T00:57:51;8.35;;;5.03;;
46308;SDS011;32037;50.820;6.494;2022-12-18T01:00:19;9.52;;;6.30;;
46308;SDS011;32037;50.820;6.494;2022-12-18T01:02:49;8.93;;;5.78;;
46308;SDS011;32037;50.820;6.494;2022-12-18T01:05:17;7.18;;;4.75;;
46308;SDS011;32037;50.820;6.494;2022-12-18T01:07:46;6.82;;;5.07;;
46308;SDS011;32037;50.820;6.494;2022-12-18T01:10:17;12.32;;;5.95;;
46308;SDS011;32037;50.820;6.494;2022-12-18T01:12:45;9.25;;;6.13;;
46308;SDS011;32037;50.820;6.494;2022-12-18T01:15:16;7.35;;;5.90;;
46308;SDS011;32037;50.820;6.494;2022-12-18T01:17:45;9.10;;;6.00;;
46308;SDS011;32037;50.820;6.494;2022-12-18T01:20:14;7.00;;;5.28;;
46308;SDS011;32037;50.820;6.494;2022-12-18T01:22:44;9.63;;;6.60;;
46308;SDS011;32037;50.820;6.494;2022-12-18T01:25:13;11.60;;;6.88;;
46308;SDS011;32037;50.820;6.494;2022-12-18T01:27:44;8.07;;;5.57;;
46308;SDS011;32037;50.820;6.494;2022-12-18T01:30:12;10.95;;;6.53;;
46308;SDS011;32037;50.820;6.494;2022-12-18T01:32:41;11.13;;;7.22;;
46308;SDS011;32037;50.820;6.494;2022-12-18T01:35:09;7.47;;;5.57;;
46308;SDS011;32037;50.820;6.494;2022-12-18T01:37:38;9.15;;;5.25;;
46308;SDS011;32037;50.820;6.494;2022-12-18T01:40:07;9.15;;;5.93;;
46308;SDS011;32037;50.820;6.494;2022-12-18T01:42:37;8.77;;;5.93;;
46308;SDS011;32037;50.820;6.494;2022-12-18T01:45:21;8.75;;;6.07;;
46308;SDS011;32037;50.820;6.494;2022-12-18T01:47:52;8.45;;;4.82;;
46308;SDS011;32037;50.820;6.494;2022-12-18T01:50:23;11.43;;;6.63;;
46308;SDS011;32037;50.820;6.494;2022-12-18T01:52:55;9.43;;;6.47;;
46308;SDS011;32037;50.820;6.494;2022-12-18T01:55:30;9.35;;;6.63;;
46308;SDS011;32037;50.820;6.494;2022-12-18T01:58:02;10.30;;;6.10;;
46308;SDS011;32037;50.820;6.494;2022-12-18T02:00:33;6.65;;;4.93;;
46308;SDS011;32037;50.820;6.494;2022-12-18T02:03:02;7.88;;;5.35;;
46308;SDS011;32037;50.820;6.494;2022-12-18T02:05:38;6.40;;;5.22;;
46308;SDS011;32037;50.820;6.494;2022-12-18T02:08:13;8.70;;;5.43;;
46308;SDS011;32037;50.820;6.494;2022-12-18T02:10:51;8.43;;;5.55;;
46308;SDS011;32037;50.820;6.494;2022-12-18T02:13:32;8.55;;;5.20;;
46308;SDS011;32037;50.820;6.494;2022-12-18T02:16:08;8.93;;;5.70;;
46308;SDS011;32037;50.820;6.494;2022-12-18T02:18:44;8.75;;;5.95;;
46308;SDS011;32037;50.820;6.494;2022-12-18T02:21:19;7.25;;;5.95;;
46308;SDS011;32037;50.820;6.494;2022-12-18T02:23:56;7.13;;;5.25;;
46308;SDS011;32037;50.820;6.494;2022-12-18T02:26:37;7.95;;;5.53;;
46308;SDS011;32037;50.820;6.494;2022-12-18T02:29:12;10.23;;;4.75;;
46308;SDS011;32037;50.820;6.494;2022-12-18T02:31:48;7.53;;;5.43;;
46308;SDS011;32037;50.820;6.494;2022-12-18T02:34:20;8.90;;;5.57;;
46308;SDS011;32037;50.820;6.494;2022-12-18T02:36:54;8.55;;;5.88;;
46308;SDS011;32037;50.820;6.494;2022-12-18T02:39:25;7.22;;;5.07;;
46308;SDS011;32037;50.820;6.494;2022-12-18T02:42:02;8.73;;;5.53;;
46308;SDS011;32037;50.820;6.494;2022-12-18T02:44:35;5.38;;;4.50;;
46308;SDS011;32037;50.820;6.494;2022-12-18T02:47:13;8.35;;;5.03;;
46308;SDS011;32037;50.820;6.494;2022-12-18T02:49:49;7.20;;;5.47;;
46308;SDS011;32037;50.820;6.494;2022-12-18T02:52:31;9.20;;;6.30;;
46308;SDS011;32037;50.820;6.494;2022-12-18T02:55:08;8.77;;;5.70;;
46308;SDS011;32037;50.820;6.494;2022-12-18T02:57:56;7.97;;;5.70;;
46308;SDS011;32037;50.820;6.494;2022-12-18T03:00:35;8.73;;;6.50;;
46308;SDS011;32037;50.820;6.494;2022-12-18T03:03:09;10.80;;;6.38;;
46308;SDS011;32037;50.820;6.494;2022-12-18T03:05:47;10.02;;;6.60;;
46308;SDS011;32037;50.820;6.494;2022-12-18T03:08:18;7.70;;;6.05;;
46308;SDS011;32037;50.820;6.494;2022-12-18T03:10:52;11.52;;;6.97;;
46308;SDS011;32037;50.820;6.494;2022-12-18T03:13:28;8.20;;;5.50;;
46308;SDS011;32037;50.820;6.494;2022-12-18T03:16:03;9.07;;;4.82;;
46308;SDS011;32037;50.820;6.494;2022-12-18T03:18:42;7.78;;;6.10;;
46308;SDS011;32037;50.820;6.494;2022-12-18T03:21:14;8.82;;;5.30;;
46308;SDS011;32037;50.820;6.494;2022-12-18T03:23:48;9.35;;;5.82;;
46308;SDS011;32037;50.820;6.494;2022-12-18T03:26:23;10.15;;;5.88;;
46308;SDS011;32037;50.820;6.494;2022-12-18T03:28:59;10.15;;;6.20;;
46308;SDS011;32037;50.820;6.494;2022-12-18T03:31:34;8.38;;;5.95;;
46308;SDS011;32037;50.820;6.494;2022-12-18T03:34:05;11.55;;;7.05;;
46308;SDS011;32037;50.820;6.494;2022-12-18T03:36:43;9.25;;;6.50;;
46308;SDS011;32037;50.820;6.494;2022-12-18T03:39:13;8.48;;;5.40;;
46308;SDS011;32037;50.820;6.494;2022-12-18T03:41:51;6.38;;;5.30;;
46308;SDS011;32037;50.820;6.494;2022-12-18T03:44:31;9.88;;;6.07;;
46308;SDS011;32037;50.820;6.494;2022-12-18T03:47:06;12.95;;;5.68;;
46308;SDS011;32037;50.820;6.494;2022-12-18T03:49:40;9.20;;;4.90;;
46308;SDS011;32037;50.820;6.494;2022-12-18T03:52:17;10.52;;;6.50;;
46308;SDS011;32037;50.820;6.494;2022-12-18T03:54:54;10.10;;;5.57;;
46308;SDS011;32037;50.820;6.494;2022-12-18T03:57:26;8.10;;;5.95;;
46308;SDS011;32037;50.820;6.494;2022-12-18T03:59:59;9.05;;;5.18;;
46308;SDS011;32037;50.820;6.494;2022-12-18T04:02:40;9.20;;;5.32;;
46308;SDS011;32037;50.820;6.494;2022-12-18T04:05:19;6.78;;;5.05;;
46308;SDS011;32037;50.820;6.494;2022-12-18T04:07:50;11.27;;;6.22;;
46308;SDS011;32037;50.820;6.494;2022-12-18T04:10:21;8.20;;;5.90;;
46308;SDS011;32037;50.820;6.494;2022-12-18T04:12:50;4.90;;;4.15;;
46308;SDS011;32037;50.820;6.494;2022-12-18T04:15:25;9.60;;;6.07;;
46308;SDS011;32037;50.820;6.494;2022-12-18T04:17:55;10.05;;;6.10;;
46308;SDS011;32037;50.820;6.494;2022-12-18T04:20:30;8.15;;;5.30;;
46308;SDS011;32037;50.820;6.494;2022-12-18T04:22:59;8.05;;;5.95;;
46308;SDS011;32037;50.820;6.494;2022-12-18T04:25:29;9.65;;;6.45;;
46308;SDS011;32037;50.820;6.494;2022-12-18T04:28:09;8.70;;;5.43;;
46308;SDS011;32037;50.820;6.494;2022-12-18T04:30:39;13.02;;;6.57;;
46308;SDS011;32037;50.820;6.494;2022-12-18T04:33:08;8.68;;;5.80;;
46308;SDS011;32037;50.820;6.494;2022-12-18T04:35:38;7.05;;;5.40;;
46308;SDS011;32037;50.820;6.494;2022-12-18T04:38:07;8.43;;;5.18;;
46308;SDS011;32037;50.820;6.494;2022-12-18T04:40:39;9.68;;;6.00;;
46308;SDS011;32037;50.820;6.494;2022-12-18T04:43:16;7.38;;;5.53;;
46308;SDS011;32037;50.820;6.494;2022-12-18T04:45:47;10.10;;;5.38;;
46308;SDS011;32037;50.820;6.494;2022-12-18T04:48:15;7.57;;;4.75;;
46308;SDS011;32037;50.820;6.494;2022-12-18T04:50:45;7.25;;;5.70;;
46308;SDS011;32037;50.820;6.494;2022-12-18T04:53:14;6.55;;;4.63;;
46308;SDS011;32037;50.820;6.494;2022-12-18T04:55:43;7.07;;;5.18;;
46308;SDS011;32037;50.820;6.494;2022-12-18T04:58:11;12.48;;;6.78;;
46308;SDS011;32037;50.820;6.494;2022-12-18T05:00:40;7.68;;;5.20;;
46308;SDS011;32037;50.820;6.494;2022-12-18T05:03:10;9.20;;;6.10;;
46308;SDS011;32037;50.820;6.494;2022-12-18T05:05:38;7.82;;;5.20;;
46308;SDS011;32037;50.820;6.494;2022-12-18T05:08:07;8.35;;;5.18;;
46308;SDS011;32037;50.820;6.494;2022-12-18T05:10:36;7.88;;;5.40;;
46308;SDS011;32037;50.820;6.494;2022-12-18T05:13:05;8.23;;;5.85;;
46308;SDS011;32037;50.820;6.494;2022-12-18T05:15:33;8.25;;;6.03;;
46308;SDS011;32037;50.820;6.494;2022-12-18T05:18:02;6.90;;;5.07;;
46308;SDS011;32037;50.820;6.494;2022-12-18T05:20:34;8.82;;;5.43;;
46308;SDS011;32037;50.820;6.494;2022-12-18T05:23:02;9.75;;;5.82;;
46308;SDS011;32037;50.820;6.494;2022-12-18T05:25:31;10.20;;;5.68;;
46308;SDS011;32037;50.820;6.494;2022-12-18T05:27:59;8.50;;;6.25;;
46308;SDS011;32037;50.820;6.494;2022-12-18T05:30:28;9.13;;;6.20;;
46308;SDS011;32037;50.820;6.494;2022-12-18T05:32:56;9.88;;;6.18;;
46308;SDS011;32037;50.820;6.494;2022-12-18T05:35:25;8.68;;;5.65;;
46308;SDS011;32037;50.820;6.494;2022-12-18T05:37:55;8.55;;;5.90;;
46308;SDS011;32037;50.820;6.494;2022-12-18T05:40:24;11.27;;;6.13;;
46308;SDS011;32037;50.820;6.494;2022-12-18T05:42:54;6.55;;;5.35;;
46308;SDS011;32037;50.820;6.494;2022-12-18T05:45:22;8.70;;;4.47;;
46308;SDS011;32037;50.820;6.494;2022-12-18T05:47:51;8.30;;;6.00;;
46308;SDS011;32037;50.820;6.494;2022-12-18T05:50:20;7.75;;;5.22;;
46308;SDS011;32037;50.820;6.494;2022-12-18T05:52:49;6.38;;;4.65;;
46308;SDS011;32037;50.820;6.494;2022-12-18T05:55:19;10.02;;;6.97;;
46308;SDS011;32037;50.820;6.494;2022-12-18T05:57:48;7.45;;;4.95;;
46308;SDS011;32037;50.820;6.494;2022-12-18T06:00:19;8.52;;;4.90;;
46308;SDS011;32037;50.820;6.494;2022-12-18T06:02:48;8.90;;;4.72;;
46308;SDS011;32037;50.820;6.494;2022-12-18T06:05:17;7.75;;;5.60;;
46308;SDS011;32037;50.820;6.494;2022-12-18T06:07:46;7.75;;;5.25;;
46308;SDS011;32037;50.820;6.494;2022-12-18T06:10:15;8.07;;;5.38;;
46308;SDS011;32037;50.820;6.494;2022-12-18T06:12:45;9.50;;;4.85;;
46308;SDS011;32037;50.820;6.494;2022-12-18T06:15:14;7.30;;;4.80;;
46308;SDS011;32037;50.820;6.494;2022-12-18T06:17:42;8.07;;;5.10;;
46308;SDS011;32037;50.820;6.494;2022-12-18T06:20:11;10.43;;;6.60;;
46308;SDS011;32037;50.820;6.494;2022-12-18T06:22:41;9.10;;;4.75;;
46308;SDS011;32037;50.820;6.494;2022-12-18T06:25:10;8.70;;;5.40;;
46308;SDS011;32037;50.820;6.494;2022-12-18T06:27:40;9.70;;;5.50;;
46308;SDS011;32037;50.820;6.494;2022-12-18T06:30:12;12.13;;;7.00;;
46308;SDS011;32037;50.820;6.494;2022-12-18T06:32:43;10.48;;;7.68;;
46308;SDS011;32037;50.820;6.494;2022-12-18T06:35:14;9.25;;;6.38;;
46308;SDS011;32037;50.820;6.494;2022-12-18T06:37:46;10.75;;;5.80;;
46308;SDS011;32037;50.820;6.494;2022-12-18T06:40:16;10.48;;;6.35;;
46308;SDS011;32037;50.820;6.494;2022-12-18T06:42:44;7.00;;;5.70;;
46308;SDS011;32037;50.820;6.494;2022-12-18T06:45:14;11.30;;;6.95;;
46308;SDS011;32037;50.820;6.494;2022-12-18T06:47:43;8.25;;;5.35;;
46308;SDS011;32037;50.820;6.494;2022-12-18T06:50:12;8.75;;;6.13;;
46308;SDS011;32037;50.820;6.494;2022-12-18T06:52:40;9.30;;;5.85;;
46308;SDS011;32037;50.820;6.494;2022-12-18T06:55:10;10.02;;;6.78;;
46308;SDS011;32037;50.820;6.494;2022-12-18T06:57:39;8.95;;;6.43;;
46308;SDS011;32037;50.820;6.494;2022-12-18T07:00:08;11.15;;;6.40;;
46308;SDS011;32037;50.820;6.494;2022-12-18T07:02:39;9.52;;;6.63;;
46308;SDS011;32037;50.820;6.494;2022-12-18T07:05:08;9.95;;;7.18;;
46308;SDS011;32037;50.820;6.494;2022-12-18T07:07:37;10.10;;;6.60;;
46308;SDS011;32037;50.820;6.494;2022-12-18T07:10:06;11.65;;;7.30;;
46308;SDS011;32037;50.820;6.494;2022-12-18T07:12:35;13.07;;;7.38;;
46308;SDS011;32037;50.820;6.494;2022-12-18T07:15:03;9.68;;;7.22;;
46308;SDS011;32037;50.820;6.494;2022-12-18T07:17:33;11.10;;;5.45;;
46308;SDS011;32037;50.820;6.494;2022-12-18T07:20:05;9.25;;;6.60;;
46308;SDS011;32037;50.820;6.494;2022-12-18T07:22:34;8.88;;;5.30;;
46308;SDS011;32037;50.820;6.494;2022-12-18T07:25:03;9.20;;;6.60;;
46308;SDS011;32037;50.820;6.494;2022-12-18T07:27:32;10.00;;;6.20;;
46308;SDS011;32037;50.820;6.494;2022-12-18T07:30:01;10.32;;;7.05;;
46308;SDS011;32037;50.820;6.494;2022-12-18T07:32:30;9.45;;;6.88;;
46308;SDS011;32037;50.820;6.494;2022-12-18T07:34:58;11.95;;;7.55;;
46308;SDS011;32037;50.820;6.494;2022-12-18T07:37:28;8.57;;;6.40;;
46308;SDS011;32037;50.820;6.494;2022-12-18T07:39:56;9.80;;;6.40;;
46308;SDS011;32037;50.820;6.494;2022-12-18T07:42:25;13.20;;;6.75;;
46308;SDS011;32037;50.820;6.494;2022-12-18T07:44:59;9.05;;;6.20;;
46308;SDS011;32037;50.820;6.494;2022-12-18T07:47:30;11.07;;;7.10;;
46308;SDS011;32037;50.820;6.494;2022-12-18T07:50:01;9.13;;;6.50;;
46308;SDS011;32037;50.820;6.494;2022-12-18T07:52:31;9.55;;;6.95;;
46308;SDS011;32037;50.820;6.494;2022-12-18T07:55:00;11.20;;;6.65;;
46308;SDS011;32037;50.820;6.494;2022-12-18T07:57:30;11.52;;;7.57;;
46308;SDS011;32037;50.820;6.494;2022-12-18T08:00:18;9.25;;;6.05;;
46308;SDS011;32037;50.820;6.494;2022-12-18T08:02:46;9.00;;;6.00;;
46308;SDS011;32037;50.820;6.494;2022-12-18T08:05:18;10.40;;;7.25;;
46308;SDS011;32037;50.820;6.494;2022-12-18T08:07:49;12.10;;;6.85;;
46308;SDS011;32037;50.820;6.494;2022-12-18T08:10:17;8.52;;;6.50;;
46308;SDS011;32037;50.820;6.494;2022-12-18T08:12:48;10.82;;;7.60;;
46308;SDS011;32037;50.820;6.494;2022-12-18T08:15:17;9.75;;;6.72;;
46308;SDS011;32037;50.820;6.494;2022-12-18T08:17:46;12.32;;;6.63;;
46308;SDS011;32037;50.820;6.494;2022-12-18T08:20:14;13.07;;;7.43;;
46308;SDS011;32037;50.820;6.494;2022-12-18T08:22:45;9.88;;;5.95;;
46308;SDS011;32037;50.820;6.494;2022-12-18T08:25:15;11.05;;;6.93;;
46308;SDS011;32037;50.820;6.494;2022-12-18T08:27:43;9.82;;;5.82;;
46308;SDS011;32037;50.820;6.494;2022-12-18T08:30:12;12.70;;;6.45;;
46308;SDS011;32037;50.820;6.494;2022-12-18T08:32:41;10.85;;;7.07;;
46308;SDS011;32037;50.820;6.494;2022-12-18T08:35:10;11.63;;;7.25;;
46308;SDS011;32037;50.820;6.494;2022-12-18T08:37:41;10.40;;;7.13;;
46308;SDS011;32037;50.820;6.494;2022-12-18T08:40:10;11.20;;;6.95;;
46308;SDS011;32037;50.820;6.494;2022-12-18T08:42:41;13.65;;;6.70;;
46308;SDS011;32037;50.820;6.494;2022-12-18T08:45:26;10.48;;;6.90;;
46308;SDS011;32037;50.820;6.494;2022-12-18T08:47:58;12.52;;;7.28;;
46308;SDS011;32037;50.820;6.494;2022-12-18T08:50:26;13.13;;;8.65;;
46308;SDS011;32037;50.820;6.494;2022-12-18T08:52:55;11.45;;;6.20;;
46308;SDS011;32037;50.820;6.494;2022-12-18T08:55:23;9.85;;;6.78;;
46308;SDS011;32037;50.820;6.494;2022-12-18T08:57:53;13.52;;;7.65;;
46308;SDS011;32037;50.820;6.494;2022-12-18T09:00:21;10.70;;;6.63;;
46308;SDS011;32037;50.820;6.494;2022-12-18T09:02:49;9.13;;;6.85;;
46308;SDS011;32037;50.820;6.494;2022-12-18T09:05:18;8.80;;;5.80;;
46308;SDS011;32037;50.820;6.494;2022-12-18T09:07:47;10.88;;;6.97;;
46308;SDS011;32037;50.820;6.494;2022-12-18T09:10:16;6.82;;;5.43;;
46308;SDS011;32037;50.820;6.494;2022-12-18T09:12:46;9.13;;;6.78;;
46308;SDS011;32037;50.820;6.494;2022-12-18T09:15:17;10.65;;;6.32;;
46308;SDS011;32037;50.820;6.494;2022-12-18T09:17:47;10.43;;;6.80;;
46308;SDS011;32037;50.820;6.494;2022-12-18T09:20:16;10.27;;;6.15;;
46308;SDS011;32037;50.820;6.494;2022-12-18T09:22:47;8.55;;;6.00;;
46308;SDS011;32037;50.820;6.494;2022-12-18T09:25:15;10.35;;;5.65;;
46308;SDS011;32037;50.820;6.494;2022-12-18T09:27:46;17.73;;;8.35;;
46308;SDS011;32037;50.820;6.494;2022-12-18T09:30:15;13.07;;;7.32;;
46308;SDS011;32037;50.820;6.494;2022-12-18T09:32:45;9.80;;;6.60;;
46308;SDS011;32037;50.820;6.494;2022-12-18T09:35:14;10.25;;;6.80;;
46308;SDS011;32037;50.820;6.494;2022-12-18T09:37:43;10.80;;;7.07;;
46308;SDS011;32037;50.820;6.494;2022-12-18T09:40:12;11.20;;;6.80;;
46308;SDS011;32037;50.820;6.494;2022-12-18T09:42:42;9.23;;;6.45;;
46308;SDS011;32037;50.820;6.494;2022-12-18T09:45:17;10.18;;;7.50;;
46308;SDS011;32037;50.820;6.494;2022-12-18T09:47:47;9.85;;;7.22;;
46308;SDS011;32037;50.820;6.494;2022-12-18T09:50:21;10.02;;;6.68;;
46308;SDS011;32037;50.820;6.494;2022-12-18T09:52:54;13.40;;;8.82;;
46308;SDS011;32037;50.820;6.494;2022-12-18T09:55:28;10.05;;;6.97;;
46308;SDS011;32037;50.820;6.494;2022-12-18T09:58:05;14.82;;;8.93;;
46308;SDS011;32037;50.820;6.494;2022-12-18T10:00:40;13.20;;;8.13;;
46308;SDS011;32037;50.820;6.494;2022-12-18T10:03:11;12.95;;;7.75;;
46308;SDS011;32037;50.820;6.494;2022-12-18T10:05:43;10.15;;;6.80;;
46308;SDS011;32037;50.820;6.494;2022-12-18T10:08:22;11.23;;;7.15;;
46308;SDS011;32037;50.820;6.494;2022-12-18T10:10:57;9.63;;;6.07;;
46308;SDS011;32037;50.820;6.494;2022-12-18T10:13:30;11.57;;;6.57;;
46308;SDS011;32037;50.820;6.494;2022-12-18T10:16:08;8.32;;;7.20;;
46308;SDS011;32037;50.820;6.494;2022-12-18T10:18:51;13.35;;;7.25;;
46308;SDS011;32037;50.820;6.494;2022-12-18T10:21:31;12.80;;;7.38;;
46308;SDS011;32037;50.820;6.494;2022-12-18T10:24:08;11.60;;;7.03;;
46308;SDS011;32037;50.820;6.494;2022-12-18T10:26:46;9.35;;;5.45;;
46308;SDS011;32037;50.820;6.494;2022-12-18T10:29:16;10.57;;;7.18;;
46308;SDS011;32037;50.820;6.494;2022-12-18T10:31:45;12.15;;;8.82;;
46308;SDS011;32037;50.820;6.494;2022-12-18T10:34:15;11.25;;;7.30;;
46308;SDS011;32037;50.820;6.494;2022-12-18T10:36:43;10.18;;;6.35;;
46308;SDS011;32037;50.820;6.494;2022-12-18T10:39:16;12.32;;;7.70;;
46308;SDS011;32037;50.820;6.494;2022-12-18T10:41:45;9.85;;;6.57;;
46308;SDS011;32037;50.820;6.494;2022-12-18T10:44:17;11.68;;;6.90;;
46308;SDS011;32037;50.820;6.494;2022-12-18T10:46:48;9.25;;;6.32;;
46308;SDS011;32037;50.820;6.494;2022-12-18T10:49:21;13.20;;;8.38;;
46308;SDS011;32037;50.820;6.494;2022-12-18T10:51:51;10.38;;;6.35;;
46308;SDS011;32037;50.820;6.494;2022-12-18T10:54:34;12.35;;;7.88;;
46308;SDS011;32037;50.820;6.494;2022-12-18T10:57:18;8.40;;;6.45;;
46308;SDS011;32037;50.820;6.494;2022-12-18T11:00:18;8.55;;;5.68;;
46308;SDS011;32037;50.820;6.494;2022-12-18T11:02:53;11.50;;;6.68;;
46308;SDS011;32037;50.820;6.494;2022-12-18T11:05:25;11.00;;;7.75;;
46308;SDS011;32037;50.820;6.494;2022-12-18T11:07:57;10.68;;;6.45;;
46308;SDS011;32037;50.820;6.494;2022-12-18T11:10:28;11.10;;;7.10;;
46308;SDS011;32037;50.820;6.494;2022-12-18T11:13:11;12.02;;;7.10;;
46308;SDS011;32037;50.820;6.494;2022-12-18T11:15:44;10.23;;;6.60;;
46308;SDS011;32037;50.820;6.494;2022-12-18T11:18:16;7.50;;;5.82;;
46308;SDS011;32037;50.820;6.494;2022-12-18T11:20:52;13.00;;;7.93;;
46308;SDS011;32037;50.820;6.494;2022-12-18T11:23:24;11.52;;;6.55;;
46308;SDS011;32037;50.820;6.494;2022-12-18T11:25:55;10.25;;;7.03;;
46308;SDS011;32037;50.820;6.494;2022-12-18T11:28:27;11.10;;;6.43;;
46308;SDS011;32037;50.820;6.494;2022-12-18T11:31:12;11.73;;;7.90;;
46308;SDS011;32037;50.820;6.494;2022-12-18T11:33:47;9.40;;;5.57;;
46308;SDS011;32037;50.820;6.494;2022-12-18T11:36:50;12.18;;;8.27;;
46308;SDS011;32037;50.820;6.494;2022-12-18T11:39:20;10.23;;;7.13;;
46308;SDS011;32037;50.820;6.494;2022-12-18T11:41:59;9.90;;;6.60;;
46308;SDS011;32037;50.820;6.494;2022-12-18T11:44:43;11.18;;;5.55;;
46308;SDS011;32037;50.820;6.494;2022-12-18T11:47:19;10.43;;;6.50;;
46308;SDS011;32037;50.820;6.494;2022-12-18T11:49:53;12.40;;;7.57;;
46308;SDS011;32037;50.820;6.494;2022-12-18T11:52:26;10.93;;;6.25;;
46308;SDS011;32037;50.820;6.494;2022-12-18T11:55:00;11.35;;;7.55;;
46308;SDS011;32037;50.820;6.494;2022-12-18T11:57:36;10.80;;;6.43;;
46308;SDS011;32037;50.820;6.494;2022-12-18T12:00:11;10.15;;;6.60;;
46308;SDS011;32037;50.820;6.494;2022-12-18T12:02:56;10.55;;;6.80;;
46308;SDS011;32037;50.820;6.494;2022-12-18T12:05:54;11.43;;;6.75;;
46308;SDS011;32037;50.820;6.494;2022-12-18T12:08:33;12.07;;;6.95;;
46308;SDS011;32037;50.820;6.494;2022-12-18T12:11:10;10.32;;;7.60;;
46308;SDS011;32037;50.820;6.494;2022-12-18T12:13:54;10.77;;;6.60;;
46308;SDS011;32037;50.820;6.494;2022-12-18T12:16:34;11.55;;;6.70;;
46308;SDS011;32037;50.820;6.494;2022-12-18T12:19:16;12.73;;;7.72;;
46308;SDS011;32037;50.820;6.494;2022-12-18T12:21:56;11.13;;;6.85;;
46308;SDS011;32037;50.820;6.494;2022-12-18T12:24:36;10.82;;;6.20;;
46308;SDS011;32037;50.820;6.494;2022-12-18T12:27:17;10.43;;;6.68;;
46308;SDS011;32037;50.820;6.494;2022-12-18T12:29:59;8.27;;;6.38;;
46308;SDS011;32037;50.820;6.494;2022-12-18T12:32:37;10.35;;;6.63;;
46308;SDS011;32037;50.820;6.494;2022-12-18T12:35:21;7.97;;;6.50;;
46308;SDS011;32037;50.820;6.494;2022-12-18T12:38:08;9.05;;;5.88;;
46308;SDS011;32037;50.820;6.494;2022-12-18T12:40:43;8.95;;;6.63;;
46308;SDS011;32037;50.820;6.494;2022-12-18T12:43:24;10.32;;;7.25;;
46308;SDS011;32037;50.820;6.494;2022-12-18T12:46:01;9.55;;;6.30;;
46308;SDS011;32037;50.820;6.494;2022-12-18T12:48:38;10.63;;;7.18;;
46308;SDS011;32037;50.820;6.494;2022-12-18T12:51:13;13.00;;;7.28;;
46308;SDS011;32037;50.820;6.494;2022-12-18T12:53:45;9.82;;;7.40;;
46308;SDS011;32037;50.820;6.494;2022-12-18T12:56:17;9.73;;;7.40;;
46308;SDS011;32037;50.820;6.494;2022-12-18T12:58:54;9.25;;;7.22;;
46308;SDS011;32037;50.820;6.494;2022-12-18T13:01:30;12.18;;;7.53;;
46308;SDS011;32037;50.820;6.494;2022-12-18T13:04:08;12.77;;;7.65;;
46308;SDS011;32037;50.820;6.494;2022-12-18T13:06:50;11.30;;;7.45;;
46308;SDS011;32037;50.820;6.494;2022-12-18T13:09:24;9.88;;;7.07;;
46308;SDS011;32037;50.820;6.494;2022-12-18T13:12:04;10.95;;;7.13;;
46308;SDS011;32037;50.820;6.494;2022-12-18T13:15:11;11.48;;;7.95;;
46308;SDS011;32037;50.820;6.494;2022-12-18T13:17:48;12.23;;;7.10;;
46308;SDS011;32037;50.820;6.494;2022-12-18T13:20:16;13.30;;;8.70;;
46308;SDS011;32037;50.820;6.494;2022-12-18T13:22:46;18.65;;;9.73;;
46308;SDS011;32037;50.820;6.494;2022-12-18T13:25:35;20.83;;;12.25;;
46308;SDS011;32037;50.820;6.494;2022-12-18T13:28:10;16.73;;;11.60;;
46308;SDS011;32037;50.820;6.494;2022-12-18T13:30:47;21.48;;;11.63;;
46308;SDS011;32037;50.820;6.494;2022-12-18T13:36:37;18.38;;;10.43;;
46308;SDS011;32037;50.820;6.494;2022-12-18T13:45:43;16.95;;;10.70;;
46308;SDS011;32037;50.820;6.494;2022-12-18T13:48:15;18.55;;;11.55;;
46308;SDS011;32037;50.820;6.494;2022-12-18T13:50:55;14.65;;;10.77;;
46308;SDS011;32037;50.820;6.494;2022-12-18T13:53:27;16.50;;;10.18;;
46308;SDS011;32037;50.820;6.494;2022-12-18T13:56:04;14.43;;;9.30;;
46308;SDS011;32037;50.820;6.494;2022-12-18T13:58:34;15.77;;;9.65;;
46308;SDS011;32037;50.820;6.494;2022-12-18T14:01:05;13.45;;;9.63;;
46308;SDS011;32037;50.820;6.494;2022-12-18T14:03:46;13.27;;;9.63;;
46308;SDS011;32037;50.820;6.494;2022-12-18T14:06:15;16.10;;;10.48;;
46308;SDS011;32037;50.820;6.494;2022-12-18T14:08:45;16.02;;;10.23;;
46308;SDS011;32037;50.820;6.494;2022-12-18T14:11:18;14.57;;;10.70;;
46308;SDS011;32037;50.820;6.494;2022-12-18T14:13:52;14.85;;;9.55;;
46308;SDS011;32037;50.820;6.494;2022-12-18T14:16:22;15.65;;;11.00;;
46308;SDS011;32037;50.820;6.494;2022-12-18T14:18:52;14.77;;;9.52;;
46308;SDS011;32037;50.820;6.494;2022-12-18T14:21:40;15.98;;;9.70;;
46308;SDS011;32037;50.820;6.494;2022-12-18T14:24:15;12.95;;;8.73;;
46308;SDS011;32037;50.820;6.494;2022-12-18T14:26:45;13.60;;;8.27;;
46308;SDS011;32037;50.820;6.494;2022-12-18T14:29:23;15.75;;;10.60;;
46308;SDS011;32037;50.820;6.494;2022-12-18T14:32:13;16.75;;;9.45;;
46308;SDS011;32037;50.820;6.494;2022-12-18T14:34:45;19.63;;;10.93;;
46308;SDS011;32037;50.820;6.494;2022-12-18T14:37:15;16.50;;;9.40;;
46308;SDS011;32037;50.820;6.494;2022-12-18T14:39:55;14.00;;;9.07;;
46308;SDS011;32037;50.820;6.494;2022-12-18T14:42:25;14.85;;;8.73;;
46308;SDS011;32037;50.820;6.494;2022-12-18T14:48:11;17.25;;;10.30;;
46308;SDS011;32037;50.820;6.494;2022-12-18T14:51:00;15.68;;;10.10;;
46308;SDS011;32037;50.820;6.494;2022-12-18T14:53:34;14.85;;;7.97;;
46308;SDS011;32037;50.820;6.494;2022-12-18T14:56:12;17.35;;;10.45;;
46308;SDS011;32037;50.820;6.494;2022-12-18T14:58:45;16.00;;;9.77;;
46308;SDS011;32037;50.820;6.494;2022-12-18T15:01:18;16.05;;;9.95;;
46308;SDS011;32037;50.820;6.494;2022-12-18T15:03:53;15.10;;;9.88;;
46308;SDS011;32037;50.820;6.494;2022-12-18T15:06:27;16.90;;;10.02;;
46308;SDS011;32037;50.820;6.494;2022-12-18T15:08:58;14.90;;;9.65;;
46308;SDS011;32037;50.820;6.494;2022-12-18T15:11:33;13.70;;;9.40;;
46308;SDS011;32037;50.820;6.494;2022-12-18T15:14:23;16.20;;;10.23;;
46308;SDS011;32037;50.820;6.494;2022-12-18T15:17:03;17.83;;;12.30;;
46308;SDS011;32037;50.820;6.494;2022-12-18T15:19:37;15.85;;;10.95;;
46308;SDS011;32037;50.820;6.494;2022-12-18T15:22:17;18.60;;;11.60;;
46308;SDS011;32037;50.820;6.494;2022-12-18T15:24:48;18.90;;;12.50;;
46308;SDS011;32037;50.820;6.494;2022-12-18T15:27:28;14.00;;;9.98;;